sensor_id;sensor_type;location;lat;lon;timestamp;P1;durP1;ratioP1;P2;durP2;ratioP2
2542;SDS011;1116;51.502;7.414;2022-07-26T00:01:24;5.70;;;1.10;;
2542;SDS011;1116;51.502;7.414;2022-07-26T00:03:59;5.93;;;1.20;;
2542;SDS011;1116;51.502;7.414;2022-07-26T00:06:29;5.47;;;1.47;;
2542;SDS011;1116;51.502;7.414;2022-07-26T00:08:58;5.60;;;1.50;;
2542;SDS011;1116;51.502;7.414;2022-07-26T00:11:27;5.23;;;1.10;;
2542;SDS011;1116;51.502;7.414;2022-07-26T00:14:00;6.90;;;1.10;;
2542;SDS011;1116;51.502;7.414;2022-07-26T00:16:30;5.00;;;0.93;;
2542;SDS011;1116;51.502;7.414;2022-07-26T00:19:01;5.60;;;1.07;;
2542;SDS011;1116;51.502;7.414;2022-07-26T00:21:30;6.07;;;0.90;;
2542;SDS011;1116;51.502;7.414;2022-07-26T00:24:00;5.37;;;1.00;;
2542;SDS011;1116;51.502;7.414;2022-07-26T00:26:29;5.67;;;1.10;;
2542;SDS011;1116;51.502;7.414;2022-07-26T00:28:59;5.80;;;1.30;;
2542;SDS011;1116;51.502;7.414;2022-07-26T00:31:30;6.73;;;1.13;;
2542;SDS011;1116;51.502;7.414;2022-07-26T00:34:01;5.00;;;1.03;;
2542;SDS011;1116;51.502;7.414;2022-07-26T00:36:30;5.67;;;1.00;;
2542;SDS011;1116;51.502;7.414;2022-07-26T00:39:00;5.73;;;1.30;;
2542;SDS011;1116;51.502;7.414;2022-07-26T00:41:29;5.80;;;0.97;;
2542;SDS011;1116;51.502;7.414;2022-07-26T00:43:58;5.57;;;1.13;;
2542;SDS011;1116;51.502;7.414;2022-07-26T00:46:28;5.00;;;0.90;;
2542;SDS011;1116;51.502;7.414;2022-07-26T00:48:57;5.00;;;0.80;;
2542;SDS011;1116;51.502;7.414;2022-07-26T00:51:28;7.93;;;1.20;;
2542;SDS011;1116;51.502;7.414;2022-07-26T00:53:57;8.23;;;2.17;;
2542;SDS011;1116;51.502;7.414;2022-07-26T00:56:26;4.50;;;0.80;;
2542;SDS011;1116;51.502;7.414;2022-07-26T00:58:55;6.37;;;1.23;;
2542;SDS011;1116;51.502;7.414;2022-07-26T01:01:24;5.27;;;1.20;;
2542;SDS011;1116;51.502;7.414;2022-07-26T01:03:54;5.50;;;1.13;;
2542;SDS011;1116;51.502;7.414;2022-07-26T01:06:23;7.17;;;1.10;;
2542;SDS011;1116;51.502;7.414;2022-07-26T01:08:55;5.13;;;1.07;;
2542;SDS011;1116;51.502;7.414;2022-07-26T01:11:24;6.10;;;1.23;;
2542;SDS011;1116;51.502;7.414;2022-07-26T01:13:53;6.47;;;1.30;;
2542;SDS011;1116;51.502;7.414;2022-07-26T01:16:22;5.20;;;1.20;;
2542;SDS011;1116;51.502;7.414;2022-07-26T01:18:52;5.77;;;1.30;;
2542;SDS011;1116;51.502;7.414;2022-07-26T01:21:21;5.60;;;1.40;;
2542;SDS011;1116;51.502;7.414;2022-07-26T01:23:52;4.70;;;1.17;;
2542;SDS011;1116;51.502;7.414;2022-07-26T01:26:21;8.70;;;1.30;;
2542;SDS011;1116;51.502;7.414;2022-07-26T01:28:52;6.10;;;1.30;;
2542;SDS011;1116;51.502;7.414;2022-07-26T01:31:21;5.47;;;1.20;;
2542;SDS011;1116;51.502;7.414;2022-07-26T01:33:50;5.57;;;1.17;;
2542;SDS011;1116;51.502;7.414;2022-07-26T01:36:20;5.40;;;1.50;;
2542;SDS011;1116;51.502;7.414;2022-07-26T01:38:49;6.23;;;1.13;;
2542;SDS011;1116;51.502;7.414;2022-07-26T01:41:20;5.17;;;1.20;;
2542;SDS011;1116;51.502;7.414;2022-07-26T01:44:05;6.83;;;1.63;;
2542;SDS011;1116;51.502;7.414;2022-07-26T01:46:35;4.90;;;1.20;;
2542;SDS011;1116;51.502;7.414;2022-07-26T01:49:04;7.57;;;1.83;;
2542;SDS011;1116;51.502;7.414;2022-07-26T01:51:34;6.00;;;1.03;;
2542;SDS011;1116;51.502;7.414;2022-07-26T01:54:03;5.70;;;1.33;;
2542;SDS011;1116;51.502;7.414;2022-07-26T01:56:34;7.63;;;1.50;;
2542;SDS011;1116;51.502;7.414;2022-07-26T01:59:03;5.80;;;1.10;;
2542;SDS011;1116;51.502;7.414;2022-07-26T02:01:32;5.60;;;1.40;;
2542;SDS011;1116;51.502;7.414;2022-07-26T02:04:06;6.17;;;1.80;;
2542;SDS011;1116;51.502;7.414;2022-07-26T02:06:55;5.47;;;1.27;;
2542;SDS011;1116;51.502;7.414;2022-07-26T02:09:25;5.77;;;1.40;;
2542;SDS011;1116;51.502;7.414;2022-07-26T02:12:08;5.20;;;1.07;;
2542;SDS011;1116;51.502;7.414;2022-07-26T02:14:37;6.83;;;1.20;;
2542;SDS011;1116;51.502;7.414;2022-07-26T02:17:06;5.63;;;1.20;;
2542;SDS011;1116;51.502;7.414;2022-07-26T02:19:35;8.00;;;1.23;;
2542;SDS011;1116;51.502;7.414;2022-07-26T02:22:05;7.70;;;1.40;;
2542;SDS011;1116;51.502;7.414;2022-07-26T02:24:34;7.80;;;1.80;;
2542;SDS011;1116;51.502;7.414;2022-07-26T02:27:03;4.87;;;1.20;;
2542;SDS011;1116;51.502;7.414;2022-07-26T02:29:34;7.77;;;1.70;;
2542;SDS011;1116;51.502;7.414;2022-07-26T02:32:03;5.90;;;1.43;;
2542;SDS011;1116;51.502;7.414;2022-07-26T02:34:33;5.37;;;1.27;;
2542;SDS011;1116;51.502;7.414;2022-07-26T02:37:02;6.03;;;1.40;;
2542;SDS011;1116;51.502;7.414;2022-07-26T02:39:31;7.13;;;1.50;;
2542;SDS011;1116;51.502;7.414;2022-07-26T02:42:01;7.80;;;1.77;;
2542;SDS011;1116;51.502;7.414;2022-07-26T02:44:30;10.63;;;1.97;;
2542;SDS011;1116;51.502;7.414;2022-07-26T02:47:03;6.40;;;1.40;;
2542;SDS011;1116;51.502;7.414;2022-07-26T02:49:32;8.60;;;1.40;;
2542;SDS011;1116;51.502;7.414;2022-07-26T02:52:01;6.87;;;1.60;;
2542;SDS011;1116;51.502;7.414;2022-07-26T02:54:31;7.00;;;1.37;;
2542;SDS011;1116;51.502;7.414;2022-07-26T02:57:00;6.37;;;1.17;;
2542;SDS011;1116;51.502;7.414;2022-07-26T02:59:29;7.07;;;1.70;;
2542;SDS011;1116;51.502;7.414;2022-07-26T03:01:58;6.90;;;1.40;;
2542;SDS011;1116;51.502;7.414;2022-07-26T03:04:28;10.23;;;1.80;;
2542;SDS011;1116;51.502;7.414;2022-07-26T03:06:57;5.90;;;1.47;;
2542;SDS011;1116;51.502;7.414;2022-07-26T03:09:26;7.00;;;1.67;;
2542;SDS011;1116;51.502;7.414;2022-07-26T03:11:55;7.57;;;1.47;;
2542;SDS011;1116;51.502;7.414;2022-07-26T03:14:24;6.17;;;1.37;;
2542;SDS011;1116;51.502;7.414;2022-07-26T03:16:53;7.57;;;1.67;;
2542;SDS011;1116;51.502;7.414;2022-07-26T03:19:22;7.93;;;1.23;;
2542;SDS011;1116;51.502;7.414;2022-07-26T03:21:53;5.50;;;1.20;;
2542;SDS011;1116;51.502;7.414;2022-07-26T03:24:22;6.73;;;1.33;;
2542;SDS011;1116;51.502;7.414;2022-07-26T03:26:51;6.07;;;1.20;;
2542;SDS011;1116;51.502;7.414;2022-07-26T03:29:20;7.97;;;1.40;;
2542;SDS011;1116;51.502;7.414;2022-07-26T03:31:49;7.47;;;1.60;;
2542;SDS011;1116;51.502;7.414;2022-07-26T03:34:18;6.33;;;1.30;;
2542;SDS011;1116;51.502;7.414;2022-07-26T03:36:47;6.30;;;1.50;;
2542;SDS011;1116;51.502;7.414;2022-07-26T03:39:18;5.47;;;1.60;;
2542;SDS011;1116;51.502;7.414;2022-07-26T03:41:47;6.00;;;1.63;;
2542;SDS011;1116;51.502;7.414;2022-07-26T03:44:16;6.20;;;1.40;;
2542;SDS011;1116;51.502;7.414;2022-07-26T03:46:45;5.80;;;1.33;;
2542;SDS011;1116;51.502;7.414;2022-07-26T03:49:14;22.03;;;2.53;;
2542;SDS011;1116;51.502;7.414;2022-07-26T03:51:43;6.43;;;1.33;;
2542;SDS011;1116;51.502;7.414;2022-07-26T03:54:13;8.17;;;2.30;;
2542;SDS011;1116;51.502;7.414;2022-07-26T03:56:43;9.50;;;1.67;;
2542;SDS011;1116;51.502;7.414;2022-07-26T03:59:11;7.13;;;1.40;;
2542;SDS011;1116;51.502;7.414;2022-07-26T04:01:40;12.53;;;1.73;;
2542;SDS011;1116;51.502;7.414;2022-07-26T04:04:10;7.17;;;1.50;;
2542;SDS011;1116;51.502;7.414;2022-07-26T04:06:41;8.13;;;2.10;;
2542;SDS011;1116;51.502;7.414;2022-07-26T04:09:10;9.43;;;1.87;;
2542;SDS011;1116;51.502;7.414;2022-07-26T04:11:40;6.80;;;1.70;;
2542;SDS011;1116;51.502;7.414;2022-07-26T04:14:11;10.23;;;1.80;;
2542;SDS011;1116;51.502;7.414;2022-07-26T04:16:40;12.13;;;2.30;;
2542;SDS011;1116;51.502;7.414;2022-07-26T04:19:10;8.70;;;1.83;;
2542;SDS011;1116;51.502;7.414;2022-07-26T04:21:39;9.20;;;1.83;;
2542;SDS011;1116;51.502;7.414;2022-07-26T04:24:08;11.03;;;2.03;;
2542;SDS011;1116;51.502;7.414;2022-07-26T04:26:37;12.50;;;2.57;;
2542;SDS011;1116;51.502;7.414;2022-07-26T04:29:06;8.00;;;1.80;;
2542;SDS011;1116;51.502;7.414;2022-07-26T04:31:39;7.60;;;2.20;;
2542;SDS011;1116;51.502;7.414;2022-07-26T04:34:09;10.13;;;2.17;;
2542;SDS011;1116;51.502;7.414;2022-07-26T04:36:38;13.03;;;2.57;;
2542;SDS011;1116;51.502;7.414;2022-07-26T04:39:07;9.47;;;1.77;;
2542;SDS011;1116;51.502;7.414;2022-07-26T04:41:37;12.07;;;2.80;;
2542;SDS011;1116;51.502;7.414;2022-07-26T04:44:06;10.83;;;2.00;;
2542;SDS011;1116;51.502;7.414;2022-07-26T04:46:36;9.47;;;2.33;;
2542;SDS011;1116;51.502;7.414;2022-07-26T04:49:12;8.37;;;2.17;;
2542;SDS011;1116;51.502;7.414;2022-07-26T04:51:41;8.00;;;2.30;;
2542;SDS011;1116;51.502;7.414;2022-07-26T04:54:11;7.80;;;2.20;;
2542;SDS011;1116;51.502;7.414;2022-07-26T04:56:41;10.67;;;2.23;;
2542;SDS011;1116;51.502;7.414;2022-07-26T04:59:11;8.70;;;2.20;;
2542;SDS011;1116;51.502;7.414;2022-07-26T05:01:46;9.70;;;1.80;;
2542;SDS011;1116;51.502;7.414;2022-07-26T05:04:21;7.70;;;2.10;;
2542;SDS011;1116;51.502;7.414;2022-07-26T05:06:50;9.73;;;1.97;;
2542;SDS011;1116;51.502;7.414;2022-07-26T05:09:19;8.17;;;2.30;;
2542;SDS011;1116;51.502;7.414;2022-07-26T05:11:48;8.67;;;2.70;;
2542;SDS011;1116;51.502;7.414;2022-07-26T05:14:17;7.33;;;2.07;;
2542;SDS011;1116;51.502;7.414;2022-07-26T05:16:48;10.80;;;2.30;;
2542;SDS011;1116;51.502;7.414;2022-07-26T05:19:17;9.93;;;2.20;;
2542;SDS011;1116;51.502;7.414;2022-07-26T05:21:48;22.20;;;2.27;;
2542;SDS011;1116;51.502;7.414;2022-07-26T05:24:18;8.30;;;2.20;;
2542;SDS011;1116;51.502;7.414;2022-07-26T05:26:47;7.73;;;2.30;;
2542;SDS011;1116;51.502;7.414;2022-07-26T05:29:16;10.73;;;1.93;;
2542;SDS011;1116;51.502;7.414;2022-07-26T05:31:45;7.37;;;1.90;;
2542;SDS011;1116;51.502;7.414;2022-07-26T05:34:14;9.60;;;2.03;;
2542;SDS011;1116;51.502;7.414;2022-07-26T05:36:43;8.90;;;2.00;;
2542;SDS011;1116;51.502;7.414;2022-07-26T05:39:13;8.53;;;2.20;;
2542;SDS011;1116;51.502;7.414;2022-07-26T05:41:42;10.33;;;2.23;;
2542;SDS011;1116;51.502;7.414;2022-07-26T05:44:12;13.63;;;3.10;;
2542;SDS011;1116;51.502;7.414;2022-07-26T05:46:41;10.47;;;2.63;;
2542;SDS011;1116;51.502;7.414;2022-07-26T05:49:10;7.10;;;2.17;;
2542;SDS011;1116;51.502;7.414;2022-07-26T05:51:39;8.77;;;2.20;;
2542;SDS011;1116;51.502;7.414;2022-07-26T05:54:08;7.60;;;2.20;;
2542;SDS011;1116;51.502;7.414;2022-07-26T05:56:39;8.70;;;2.27;;
2542;SDS011;1116;51.502;7.414;2022-07-26T05:59:08;10.40;;;2.30;;
2542;SDS011;1116;51.502;7.414;2022-07-26T06:01:37;10.63;;;2.20;;
2542;SDS011;1116;51.502;7.414;2022-07-26T06:04:06;11.37;;;2.80;;
2542;SDS011;1116;51.502;7.414;2022-07-26T06:06:37;11.60;;;2.23;;
2542;SDS011;1116;51.502;7.414;2022-07-26T06:09:06;10.90;;;2.20;;
2542;SDS011;1116;51.502;7.414;2022-07-26T06:11:35;11.33;;;2.37;;
2542;SDS011;1116;51.502;7.414;2022-07-26T06:14:05;9.37;;;2.13;;
2542;SDS011;1116;51.502;7.414;2022-07-26T06:16:35;7.83;;;2.20;;
2542;SDS011;1116;51.502;7.414;2022-07-26T06:19:04;11.60;;;1.90;;
2542;SDS011;1116;51.502;7.414;2022-07-26T06:21:33;9.83;;;2.23;;
2542;SDS011;1116;51.502;7.414;2022-07-26T06:24:03;9.63;;;2.70;;
2542;SDS011;1116;51.502;7.414;2022-07-26T06:26:33;10.00;;;2.53;;
2542;SDS011;1116;51.502;7.414;2022-07-26T06:29:02;10.97;;;2.80;;
2542;SDS011;1116;51.502;7.414;2022-07-26T06:31:33;16.03;;;2.73;;
2542;SDS011;1116;51.502;7.414;2022-07-26T06:34:02;9.73;;;2.90;;
2542;SDS011;1116;51.502;7.414;2022-07-26T06:36:32;8.20;;;2.37;;
2542;SDS011;1116;51.502;7.414;2022-07-26T06:39:01;9.60;;;2.60;;
2542;SDS011;1116;51.502;7.414;2022-07-26T06:41:30;16.73;;;2.90;;
2542;SDS011;1116;51.502;7.414;2022-07-26T06:43:59;12.90;;;3.20;;
2542;SDS011;1116;51.502;7.414;2022-07-26T06:46:29;8.10;;;2.60;;
2542;SDS011;1116;51.502;7.414;2022-07-26T06:48:59;13.80;;;3.17;;
2542;SDS011;1116;51.502;7.414;2022-07-26T06:51:29;12.33;;;3.13;;
2542;SDS011;1116;51.502;7.414;2022-07-26T06:53:58;11.77;;;3.30;;
2542;SDS011;1116;51.502;7.414;2022-07-26T06:56:27;26.10;;;4.33;;
2542;SDS011;1116;51.502;7.414;2022-07-26T06:58:58;12.60;;;4.37;;
2542;SDS011;1116;51.502;7.414;2022-07-26T07:01:33;14.83;;;4.10;;
2542;SDS011;1116;51.502;7.414;2022-07-26T07:04:24;9.73;;;4.17;;
2542;SDS011;1116;51.502;7.414;2022-07-26T07:06:53;12.37;;;4.63;;
2542;SDS011;1116;51.502;7.414;2022-07-26T07:09:24;12.60;;;5.20;;
2542;SDS011;1116;51.502;7.414;2022-07-26T07:11:54;19.20;;;4.73;;
2542;SDS011;1116;51.502;7.414;2022-07-26T07:14:31;14.20;;;5.10;;
2542;SDS011;1116;51.502;7.414;2022-07-26T07:17:01;15.10;;;5.77;;
2542;SDS011;1116;51.502;7.414;2022-07-26T07:19:41;19.37;;;6.87;;
2542;SDS011;1116;51.502;7.414;2022-07-26T07:22:10;17.77;;;6.33;;
2542;SDS011;1116;51.502;7.414;2022-07-26T07:24:40;15.03;;;6.00;;
2542;SDS011;1116;51.502;7.414;2022-07-26T07:27:12;19.50;;;7.50;;
2542;SDS011;1116;51.502;7.414;2022-07-26T07:29:42;17.43;;;7.20;;
2542;SDS011;1116;51.502;7.414;2022-07-26T07:32:11;13.50;;;6.53;;
2542;SDS011;1116;51.502;7.414;2022-07-26T07:34:47;16.17;;;6.17;;
2542;SDS011;1116;51.502;7.414;2022-07-26T07:37:18;13.60;;;6.00;;
2542;SDS011;1116;51.502;7.414;2022-07-26T07:39:47;17.10;;;7.77;;
2542;SDS011;1116;51.502;7.414;2022-07-26T07:42:17;15.20;;;8.60;;
2542;SDS011;1116;51.502;7.414;2022-07-26T07:44:47;22.97;;;7.30;;
2542;SDS011;1116;51.502;7.414;2022-07-26T07:47:16;18.43;;;7.00;;
2542;SDS011;1116;51.502;7.414;2022-07-26T07:49:47;16.33;;;7.20;;
2542;SDS011;1116;51.502;7.414;2022-07-26T07:52:16;17.53;;;7.50;;
2542;SDS011;1116;51.502;7.414;2022-07-26T07:54:45;15.47;;;7.03;;
2542;SDS011;1116;51.502;7.414;2022-07-26T07:57:14;11.30;;;6.33;;
2542;SDS011;1116;51.502;7.414;2022-07-26T07:59:43;12.33;;;6.80;;
2542;SDS011;1116;51.502;7.414;2022-07-26T08:02:12;16.73;;;6.97;;
2542;SDS011;1116;51.502;7.414;2022-07-26T08:04:42;12.70;;;7.20;;
2542;SDS011;1116;51.502;7.414;2022-07-26T08:07:12;13.27;;;7.40;;
2542;SDS011;1116;51.502;7.414;2022-07-26T08:09:42;10.53;;;6.80;;
2542;SDS011;1116;51.502;7.414;2022-07-26T08:12:11;16.93;;;7.80;;
2542;SDS011;1116;51.502;7.414;2022-07-26T08:14:40;14.67;;;7.53;;
2542;SDS011;1116;51.502;7.414;2022-07-26T08:17:10;19.13;;;7.17;;
2542;SDS011;1116;51.502;7.414;2022-07-26T08:19:39;12.13;;;6.20;;
2542;SDS011;1116;51.502;7.414;2022-07-26T08:22:09;9.13;;;5.80;;
2542;SDS011;1116;51.502;7.414;2022-07-26T08:24:40;11.47;;;5.30;;
2542;SDS011;1116;51.502;7.414;2022-07-26T08:27:12;11.43;;;4.57;;
2542;SDS011;1116;51.502;7.414;2022-07-26T08:29:41;7.87;;;4.13;;
2542;SDS011;1116;51.502;7.414;2022-07-26T08:32:10;12.73;;;4.73;;
2542;SDS011;1116;51.502;7.414;2022-07-26T08:34:39;11.63;;;5.07;;
2542;SDS011;1116;51.502;7.414;2022-07-26T08:37:09;9.40;;;4.43;;
2542;SDS011;1116;51.502;7.414;2022-07-26T08:39:46;9.80;;;5.10;;
2542;SDS011;1116;51.502;7.414;2022-07-26T08:42:15;12.73;;;5.40;;
2542;SDS011;1116;51.502;7.414;2022-07-26T08:44:50;9.60;;;4.67;;
2542;SDS011;1116;51.502;7.414;2022-07-26T08:47:21;13.13;;;5.10;;
2542;SDS011;1116;51.502;7.414;2022-07-26T08:50:06;13.53;;;4.90;;
2542;SDS011;1116;51.502;7.414;2022-07-26T08:52:37;11.27;;;5.50;;
2542;SDS011;1116;51.502;7.414;2022-07-26T08:55:09;12.13;;;5.13;;
2542;SDS011;1116;51.502;7.414;2022-07-26T08:57:38;11.17;;;6.47;;
2542;SDS011;1116;51.502;7.414;2022-07-26T09:00:14;12.47;;;6.90;;
2542;SDS011;1116;51.502;7.414;2022-07-26T09:02:45;9.90;;;5.93;;
2542;SDS011;1116;51.502;7.414;2022-07-26T09:05:16;11.20;;;6.07;;
2542;SDS011;1116;51.502;7.414;2022-07-26T09:07:46;9.80;;;5.73;;
2542;SDS011;1116;51.502;7.414;2022-07-26T09:10:17;11.20;;;5.20;;
2542;SDS011;1116;51.502;7.414;2022-07-26T09:12:46;12.00;;;6.30;;
2542;SDS011;1116;51.502;7.414;2022-07-26T09:15:21;12.93;;;6.10;;
2542;SDS011;1116;51.502;7.414;2022-07-26T09:17:53;15.20;;;5.77;;
2542;SDS011;1116;51.502;7.414;2022-07-26T09:56:02;9.43;;;4.33;;
2542;SDS011;1116;51.502;7.414;2022-07-26T10:02:42;8.00;;;3.67;;
2542;SDS011;1116;51.502;7.414;2022-07-26T22:19:28;5.20;;;1.10;;
2542;SDS011;1116;51.502;7.414;2022-07-26T22:22:21;7.33;;;1.10;;
2542;SDS011;1116;51.502;7.414;2022-07-26T22:25:08;9.90;;;1.10;;
2542;SDS011;1116;51.502;7.414;2022-07-26T22:28:17;13.33;;;1.43;;
2542;SDS011;1116;51.502;7.414;2022-07-26T22:31:15;9.57;;;1.30;;
2542;SDS011;1116;51.502;7.414;2022-07-26T22:34:26;5.83;;;0.63;;
2542;SDS011;1116;51.502;7.414;2022-07-26T22:38:24;6.23;;;1.00;;
2542;SDS011;1116;51.502;7.414;2022-07-26T22:41:20;6.07;;;1.10;;
2542;SDS011;1116;51.502;7.414;2022-07-26T22:45:01;10.47;;;1.43;;
2542;SDS011;1116;51.502;7.414;2022-07-26T22:47:45;6.43;;;1.10;;
2542;SDS011;1116;51.502;7.414;2022-07-26T22:50:27;5.80;;;1.40;;
2542;SDS011;1116;51.502;7.414;2022-07-26T22:57:38;5.10;;;0.83;;
2542;SDS011;1116;51.502;7.414;2022-07-26T23:00:32;5.50;;;1.00;;
2542;SDS011;1116;51.502;7.414;2022-07-26T23:03:15;5.70;;;0.80;;
2542;SDS011;1116;51.502;7.414;2022-07-26T23:06:24;5.53;;;0.90;;
2542;SDS011;1116;51.502;7.414;2022-07-26T23:09:16;5.00;;;0.90;;
2542;SDS011;1116;51.502;7.414;2022-07-26T23:12:06;5.20;;;0.80;;
2542;SDS011;1116;51.502;7.414;2022-07-26T23:19:08;8.33;;;1.10;;
2542;SDS011;1116;51.502;7.414;2022-07-26T23:22:43;8.07;;;1.20;;
2542;SDS011;1116;51.502;7.414;2022-07-26T23:26:06;6.70;;;0.90;;
2542;SDS011;1116;51.502;7.414;2022-07-26T23:28:48;7.73;;;0.97;;
2542;SDS011;1116;51.502;7.414;2022-07-26T23:31:35;5.53;;;0.80;;
2542;SDS011;1116;51.502;7.414;2022-07-26T23:34:36;5.73;;;0.80;;
2542;SDS011;1116;51.502;7.414;2022-07-26T23:37:30;10.03;;;1.07;;
2542;SDS011;1116;51.502;7.414;2022-07-26T23:40:43;6.20;;;0.80;;
2542;SDS011;1116;51.502;7.414;2022-07-26T23:43:38;7.37;;;0.83;;
2542;SDS011;1116;51.502;7.414;2022-07-26T23:46:25;7.90;;;0.90;;
